This is the latest recevied weather packets stored in our database for station/object HB9GFF-10. If no packets are shown the sender has not sent any weather packets the latest 10 day(s).
| Time | Temp. | Humidity | Pressure | Rain* | Wind** | Luminosity | Snow |
|---|---|---|---|---|---|---|---|
| 1777365613 | 24.44° C | 36% | 953 hPa | - | - | - | - |
| 1777365548 | 23.33° C | 38% | 953 hPa | - | - | - | - |
| 1777365482 | 22.78° C | 38% | 953 hPa | - | - | - | - |
| 1777365417 | 22.78° C | 38% | 953 hPa | - | - | - | - |
| 1777365351 | 22.22° C | 39% | 953 hPa | - | - | - | - |
| 1777365286 | 22.78° C | 37% | 953 hPa | - | - | - | - |
| 1777365221 | 22.78° C | 40% | 953 hPa | - | - | - | - |
| 1777365155 | 22.22° C | 41% | 953 hPa | - | - | - | - |
| 1777365090 | 23.33° C | 40% | 953 hPa | - | - | - | - |
| 1777365024 | 22.78° C | 38% | 953 hPa | - | - | - | - |
| 1777364959 | 22.22° C | 39% | 953 hPa | - | - | - | - |
| 1777364894 | 21.67° C | 40% | 953 hPa | - | - | - | - |
| 1777364828 | 22.22° C | 40% | 953 hPa | - | - | - | - |
| 1777364763 | 21.67° C | 40% | 953 hPa | - | - | - | - |
| 1777364697 | 22.78° C | 38% | 953 hPa | - | - | - | - |
| 1777364632 | 22.78° C | 39% | 953 hPa | - | - | - | - |
| 1777364567 | 22.22° C | 40% | 953 hPa | - | - | - | - |
| 1777364501 | 22.78° C | 41% | 953 hPa | - | - | - | - |
| 1777364436 | 22.78° C | 41% | 953 hPa | - | - | - | - |
| 1777364370 | 21.11° C | 42% | 953 hPa | - | - | - | - |
| 1777364305 | 21.11° C | 42% | 953 hPa | - | - | - | - |
| 1777364240 | 21.11° C | 42% | 953 hPa | - | - | - | - |
| 1777364174 | 21.67° C | 40% | 953 hPa | - | - | - | - |
| 1777364109 | 22.22° C | 38% | 953 hPa | - | - | - | - |
| 1777364043 | 23.33° C | 38% | 953 hPa | - | - | - | - |
* Rain since midnight (hover to see other rain measurements)
** Current wind speed in m/s (hover to see current wind gust speed)